sensor_id;sensor_type;location;lat;lon;timestamp;P1;durP1;ratioP1;P2;durP2;ratioP2
70420;SDS011;57848;51.938;15.520;2023-03-14T00:03:37;5.57;;;1.67;;
70420;SDS011;57848;51.938;15.520;2023-03-14T00:06:04;5.33;;;1.50;;
70420;SDS011;57848;51.938;15.520;2023-03-14T00:08:30;5.35;;;1.30;;
70420;SDS011;57848;51.938;15.520;2023-03-14T00:10:55;6.87;;;2.10;;
70420;SDS011;57848;51.938;15.520;2023-03-14T00:13:23;6.03;;;1.38;;
70420;SDS011;57848;51.938;15.520;2023-03-14T00:15:48;5.30;;;1.17;;
70420;SDS011;57848;51.938;15.520;2023-03-14T00:18:14;4.37;;;1.00;;
70420;SDS011;57848;51.938;15.520;2023-03-14T00:20:39;4.67;;;1.30;;
70420;SDS011;57848;51.938;15.520;2023-03-14T00:23:05;5.23;;;1.50;;
70420;SDS011;57848;51.938;15.520;2023-03-14T00:25:30;4.87;;;1.30;;
70420;SDS011;57848;51.938;15.520;2023-03-14T00:27:56;4.60;;;1.30;;
70420;SDS011;57848;51.938;15.520;2023-03-14T00:30:21;4.40;;;1.00;;
70420;SDS011;57848;51.938;15.520;2023-03-14T00:32:46;5.27;;;1.37;;
70420;SDS011;57848;51.938;15.520;2023-03-14T00:35:12;4.13;;;1.07;;
70420;SDS011;57848;51.938;15.520;2023-03-14T00:37:37;5.05;;;1.40;;
70420;SDS011;57848;51.938;15.520;2023-03-14T00:40:04;4.70;;;1.30;;
70420;SDS011;57848;51.938;15.520;2023-03-14T00:42:32;6.60;;;2.05;;
70420;SDS011;57848;51.938;15.520;2023-03-14T00:44:58;5.05;;;1.48;;
70420;SDS011;57848;51.938;15.520;2023-03-14T00:47:23;4.77;;;1.30;;
70420;SDS011;57848;51.938;15.520;2023-03-14T00:49:49;4.53;;;1.40;;
70420;SDS011;57848;51.938;15.520;2023-03-14T00:52:14;5.63;;;1.60;;
70420;SDS011;57848;51.938;15.520;2023-03-14T00:54:40;5.57;;;2.07;;
70420;SDS011;57848;51.938;15.520;2023-03-14T00:57:05;6.80;;;2.17;;
70420;SDS011;57848;51.938;15.520;2023-03-14T00:59:31;7.45;;;1.88;;
70420;SDS011;57848;51.938;15.520;2023-03-14T01:01:56;5.47;;;1.80;;
70420;SDS011;57848;51.938;15.520;2023-03-14T01:04:22;7.73;;;2.20;;
70420;SDS011;57848;51.938;15.520;2023-03-14T01:06:48;6.65;;;2.22;;
70420;SDS011;57848;51.938;15.520;2023-03-14T01:09:13;6.20;;;2.27;;
70420;SDS011;57848;51.938;15.520;2023-03-14T01:11:40;6.20;;;2.47;;
70420;SDS011;57848;51.938;15.520;2023-03-14T01:14:05;6.43;;;2.63;;
70420;SDS011;57848;51.938;15.520;2023-03-14T01:16:32;7.10;;;3.20;;
70420;SDS011;57848;51.938;15.520;2023-03-14T01:18:59;7.80;;;3.00;;
70420;SDS011;57848;51.938;15.520;2023-03-14T01:21:26;8.07;;;3.20;;
70420;SDS011;57848;51.938;15.520;2023-03-14T01:23:54;8.80;;;3.33;;
70420;SDS011;57848;51.938;15.520;2023-03-14T01:26:22;7.10;;;2.78;;
70420;SDS011;57848;51.938;15.520;2023-03-14T01:28:50;7.53;;;3.10;;
70420;SDS011;57848;51.938;15.520;2023-03-14T01:31:18;8.80;;;3.30;;
70420;SDS011;57848;51.938;15.520;2023-03-14T01:33:43;8.07;;;3.33;;
70420;SDS011;57848;51.938;15.520;2023-03-14T01:36:10;7.37;;;3.13;;
70420;SDS011;57848;51.938;15.520;2023-03-14T01:38:36;8.77;;;3.60;;
70420;SDS011;57848;51.938;15.520;2023-03-14T01:41:05;9.23;;;3.10;;
70420;SDS011;57848;51.938;15.520;2023-03-14T01:43:31;7.45;;;3.28;;
70420;SDS011;57848;51.938;15.520;2023-03-14T01:48:42;10.80;;;3.72;;
70420;SDS011;57848;51.938;15.520;2023-03-14T01:51:17;7.50;;;2.60;;
70420;SDS011;57848;51.938;15.520;2023-03-14T01:53:50;10.20;;;3.00;;
70420;SDS011;57848;51.938;15.520;2023-03-14T01:56:20;8.15;;;3.50;;
70420;SDS011;57848;51.938;15.520;2023-03-14T01:58:47;9.27;;;3.55;;
70420;SDS011;57848;51.938;15.520;2023-03-14T02:01:16;9.95;;;3.60;;
70420;SDS011;57848;51.938;15.520;2023-03-14T02:03:47;7.22;;;3.00;;
70420;SDS011;57848;51.938;15.520;2023-03-14T02:06:20;8.17;;;3.63;;
70420;SDS011;57848;51.938;15.520;2023-03-14T02:08:49;9.43;;;3.55;;
70420;SDS011;57848;51.938;15.520;2023-03-14T02:11:18;8.05;;;3.53;;
70420;SDS011;57848;51.938;15.520;2023-03-14T02:13:58;9.23;;;3.38;;
70420;SDS011;57848;51.938;15.520;2023-03-14T02:16:34;10.23;;;4.07;;
70420;SDS011;57848;51.938;15.520;2023-03-14T02:19:20;8.20;;;3.63;;
70420;SDS011;57848;51.938;15.520;2023-03-14T02:22:41;7.85;;;3.40;;
70420;SDS011;57848;51.938;15.520;2023-03-14T02:27:37;8.48;;;3.83;;
70420;SDS011;57848;51.938;15.520;2023-03-14T02:30:08;9.23;;;3.33;;
70420;SDS011;57848;51.938;15.520;2023-03-14T02:32:39;7.73;;;3.20;;
70420;SDS011;57848;51.938;15.520;2023-03-14T02:35:09;7.95;;;3.80;;
70420;SDS011;57848;51.938;15.520;2023-03-14T02:37:40;10.15;;;3.55;;
70420;SDS011;57848;51.938;15.520;2023-03-14T02:40:10;8.93;;;3.22;;
70420;SDS011;57848;51.938;15.520;2023-03-14T02:42:38;7.60;;;3.08;;
70420;SDS011;57848;51.938;15.520;2023-03-14T02:47:43;8.55;;;3.15;;
70420;SDS011;57848;51.938;15.520;2023-03-14T02:50:14;9.00;;;2.93;;
70420;SDS011;57848;51.938;15.520;2023-03-14T02:52:42;10.65;;;3.08;;
70420;SDS011;57848;51.938;15.520;2023-03-14T02:55:08;10.90;;;3.03;;
70420;SDS011;57848;51.938;15.520;2023-03-14T02:57:36;8.27;;;3.35;;
70420;SDS011;57848;51.938;15.520;2023-03-14T03:00:02;8.13;;;3.72;;
70420;SDS011;57848;51.938;15.520;2023-03-14T03:02:34;7.70;;;3.00;;
70420;SDS011;57848;51.938;15.520;2023-03-14T03:05:00;9.05;;;3.30;;
70420;SDS011;57848;51.938;15.520;2023-03-14T03:07:25;7.43;;;3.03;;
70420;SDS011;57848;51.938;15.520;2023-03-14T03:09:53;8.45;;;3.20;;
70420;SDS011;57848;51.938;15.520;2023-03-14T03:12:19;8.93;;;3.30;;
70420;SDS011;57848;51.938;15.520;2023-03-14T03:14:45;9.00;;;3.30;;
70420;SDS011;57848;51.938;15.520;2023-03-14T03:17:11;8.60;;;3.60;;
70420;SDS011;57848;51.938;15.520;2023-03-14T03:19:37;11.15;;;4.25;;
70420;SDS011;57848;51.938;15.520;2023-03-14T03:22:03;9.57;;;3.23;;
70420;SDS011;57848;51.938;15.520;2023-03-14T03:24:28;9.80;;;3.25;;
70420;SDS011;57848;51.938;15.520;2023-03-14T03:26:53;9.60;;;3.77;;
70420;SDS011;57848;51.938;15.520;2023-03-14T03:29:19;7.90;;;3.07;;
70420;SDS011;57848;51.938;15.520;2023-03-14T03:31:45;7.73;;;3.47;;
70420;SDS011;57848;51.938;15.520;2023-03-14T03:34:11;8.57;;;3.00;;
70420;SDS011;57848;51.938;15.520;2023-03-14T03:36:38;7.72;;;3.05;;
70420;SDS011;57848;51.938;15.520;2023-03-14T03:39:04;10.40;;;3.80;;
70420;SDS011;57848;51.938;15.520;2023-03-14T03:41:30;9.63;;;3.37;;
70420;SDS011;57848;51.938;15.520;2023-03-14T03:43:55;9.27;;;3.47;;
70420;SDS011;57848;51.938;15.520;2023-03-14T03:46:22;7.07;;;2.93;;
70420;SDS011;57848;51.938;15.520;2023-03-14T03:48:49;7.43;;;2.72;;
70420;SDS011;57848;51.938;15.520;2023-03-14T03:51:19;9.35;;;3.15;;
70420;SDS011;57848;51.938;15.520;2023-03-14T03:53:45;7.50;;;2.80;;
70420;SDS011;57848;51.938;15.520;2023-03-14T03:56:13;9.60;;;3.42;;
70420;SDS011;57848;51.938;15.520;2023-03-14T03:58:40;8.33;;;3.17;;
70420;SDS011;57848;51.938;15.520;2023-03-14T04:01:07;8.45;;;3.13;;
70420;SDS011;57848;51.938;15.520;2023-03-14T04:03:34;9.52;;;3.80;;
70420;SDS011;57848;51.938;15.520;2023-03-14T04:06:01;8.10;;;3.22;;
70420;SDS011;57848;51.938;15.520;2023-03-14T04:08:33;7.95;;;3.20;;
70420;SDS011;57848;51.938;15.520;2023-03-14T04:10:59;8.27;;;3.70;;
70420;SDS011;57848;51.938;15.520;2023-03-14T04:13:44;8.05;;;3.05;;
70420;SDS011;57848;51.938;15.520;2023-03-14T04:16:11;8.03;;;3.60;;
70420;SDS011;57848;51.938;15.520;2023-03-14T04:18:51;10.77;;;4.28;;
70420;SDS011;57848;51.938;15.520;2023-03-14T04:21:20;8.73;;;3.22;;
70420;SDS011;57848;51.938;15.520;2023-03-14T04:23:53;7.90;;;3.55;;
70420;SDS011;57848;51.938;15.520;2023-03-14T04:26:18;8.27;;;3.53;;
70420;SDS011;57848;51.938;15.520;2023-03-14T04:28:43;9.57;;;3.60;;
70420;SDS011;57848;51.938;15.520;2023-03-14T04:31:10;9.50;;;3.50;;
70420;SDS011;57848;51.938;15.520;2023-03-14T04:33:37;8.43;;;3.63;;
70420;SDS011;57848;51.938;15.520;2023-03-14T04:36:04;8.82;;;3.95;;
70420;SDS011;57848;51.938;15.520;2023-03-14T04:38:30;9.07;;;3.47;;
70420;SDS011;57848;51.938;15.520;2023-03-14T04:40:58;7.55;;;2.95;;
70420;SDS011;57848;51.938;15.520;2023-03-14T04:43:28;8.32;;;3.47;;
70420;SDS011;57848;51.938;15.520;2023-03-14T04:46:00;10.25;;;3.30;;
70420;SDS011;57848;51.938;15.520;2023-03-14T04:48:26;8.50;;;3.57;;
70420;SDS011;57848;51.938;15.520;2023-03-14T04:50:52;8.52;;;2.92;;
70420;SDS011;57848;51.938;15.520;2023-03-14T04:53:18;7.68;;;3.42;;
70420;SDS011;57848;51.938;15.520;2023-03-14T04:55:52;8.40;;;2.80;;
70420;SDS011;57848;51.938;15.520;2023-03-14T04:58:20;7.68;;;3.13;;
70420;SDS011;57848;51.938;15.520;2023-03-14T05:00:48;7.40;;;3.10;;
70420;SDS011;57848;51.938;15.520;2023-03-14T05:03:34;7.35;;;2.65;;
70420;SDS011;57848;51.938;15.520;2023-03-14T05:06:15;8.07;;;2.63;;
70420;SDS011;57848;51.938;15.520;2023-03-14T05:08:59;7.03;;;2.53;;
70420;SDS011;57848;51.938;15.520;2023-03-14T05:11:41;6.93;;;2.40;;
70420;SDS011;57848;51.938;15.520;2023-03-14T05:14:16;8.10;;;2.30;;
70420;SDS011;57848;51.938;15.520;2023-03-14T05:17:00;6.30;;;2.40;;
70420;SDS011;57848;51.938;15.520;2023-03-14T05:19:35;7.70;;;2.15;;
70420;SDS011;57848;51.938;15.520;2023-03-14T05:22:03;6.37;;;2.23;;
70420;SDS011;57848;51.938;15.520;2023-03-14T05:24:59;7.38;;;2.20;;
70420;SDS011;57848;51.938;15.520;2023-03-14T05:27:37;5.82;;;1.80;;
70420;SDS011;57848;51.938;15.520;2023-03-14T05:30:25;6.43;;;2.05;;
70420;SDS011;57848;51.938;15.520;2023-03-14T05:33:25;7.80;;;2.20;;
70420;SDS011;57848;51.938;15.520;2023-03-14T05:36:14;6.63;;;2.00;;
70420;SDS011;57848;51.938;15.520;2023-03-14T05:38:51;6.35;;;2.33;;
70420;SDS011;57848;51.938;15.520;2023-03-14T05:41:35;7.25;;;1.90;;
70420;SDS011;57848;51.938;15.520;2023-03-14T05:44:16;6.10;;;1.80;;
70420;SDS011;57848;51.938;15.520;2023-03-14T05:47:00;6.10;;;1.98;;
70420;SDS011;57848;51.938;15.520;2023-03-14T05:49:35;7.17;;;1.70;;
70420;SDS011;57848;51.938;15.520;2023-03-14T05:52:14;6.00;;;1.88;;
70420;SDS011;57848;51.938;15.520;2023-03-14T05:55:03;6.53;;;1.63;;
70420;SDS011;57848;51.938;15.520;2023-03-14T05:57:48;5.90;;;1.33;;
70420;SDS011;57848;51.938;15.520;2023-03-14T06:00:33;6.10;;;1.70;;
70420;SDS011;57848;51.938;15.520;2023-03-14T06:03:11;5.47;;;2.00;;
70420;SDS011;57848;51.938;15.520;2023-03-14T06:05:41;8.45;;;1.85;;
70420;SDS011;57848;51.938;15.520;2023-03-14T06:08:06;5.73;;;1.70;;
70420;SDS011;57848;51.938;15.520;2023-03-14T06:10:32;5.70;;;1.87;;
70420;SDS011;57848;51.938;15.520;2023-03-14T06:12:57;7.33;;;2.53;;
70420;SDS011;57848;51.938;15.520;2023-03-14T06:15:23;5.87;;;1.43;;
70420;SDS011;57848;51.938;15.520;2023-03-14T06:17:53;6.55;;;1.85;;
70420;SDS011;57848;51.938;15.520;2023-03-14T06:20:20;6.55;;;2.25;;
70420;SDS011;57848;51.938;15.520;2023-03-14T06:22:45;6.73;;;2.10;;
70420;SDS011;57848;51.938;15.520;2023-03-14T06:25:12;6.47;;;2.22;;
70420;SDS011;57848;51.938;15.520;2023-03-14T06:27:37;6.40;;;2.10;;
70420;SDS011;57848;51.938;15.520;2023-03-14T06:30:03;6.88;;;1.90;;
70420;SDS011;57848;51.938;15.520;2023-03-14T06:32:30;5.70;;;2.50;;
70420;SDS011;57848;51.938;15.520;2023-03-14T06:35:00;7.05;;;2.30;;
70420;SDS011;57848;51.938;15.520;2023-03-14T06:37:29;6.32;;;1.80;;
70420;SDS011;57848;51.938;15.520;2023-03-14T06:39:55;7.53;;;2.42;;
70420;SDS011;57848;51.938;15.520;2023-03-14T06:42:41;9.32;;;2.53;;
70420;SDS011;57848;51.938;15.520;2023-03-14T06:45:06;7.67;;;2.67;;
70420;SDS011;57848;51.938;15.520;2023-03-14T06:47:32;7.00;;;2.40;;
70420;SDS011;57848;51.938;15.520;2023-03-14T06:49:58;7.37;;;2.20;;
70420;SDS011;57848;51.938;15.520;2023-03-14T06:52:23;6.37;;;2.30;;
70420;SDS011;57848;51.938;15.520;2023-03-14T06:54:49;7.10;;;2.53;;
70420;SDS011;57848;51.938;15.520;2023-03-14T06:57:15;6.57;;;2.67;;
70420;SDS011;57848;51.938;15.520;2023-03-14T06:59:40;8.65;;;3.03;;
70420;SDS011;57848;51.938;15.520;2023-03-14T07:02:08;9.47;;;3.30;;
70420;SDS011;57848;51.938;15.520;2023-03-14T07:04:38;9.13;;;3.55;;
70420;SDS011;57848;51.938;15.520;2023-03-14T07:07:03;10.00;;;3.23;;
70420;SDS011;57848;51.938;15.520;2023-03-14T07:09:32;7.15;;;2.80;;
70420;SDS011;57848;51.938;15.520;2023-03-14T07:12:00;8.30;;;3.10;;
70420;SDS011;57848;51.938;15.520;2023-03-14T07:14:25;9.23;;;3.50;;
70420;SDS011;57848;51.938;15.520;2023-03-14T07:16:51;10.10;;;3.97;;
70420;SDS011;57848;51.938;15.520;2023-03-14T07:19:16;8.20;;;3.20;;
70420;SDS011;57848;51.938;15.520;2023-03-14T07:21:42;9.10;;;3.53;;
70420;SDS011;57848;51.938;15.520;2023-03-14T07:24:10;9.27;;;3.45;;
70420;SDS011;57848;51.938;15.520;2023-03-14T07:26:36;9.83;;;3.43;;
70420;SDS011;57848;51.938;15.520;2023-03-14T07:29:01;11.93;;;3.27;;
70420;SDS011;57848;51.938;15.520;2023-03-14T07:31:28;9.30;;;3.43;;
70420;SDS011;57848;51.938;15.520;2023-03-14T07:33:54;7.60;;;3.20;;
70420;SDS011;57848;51.938;15.520;2023-03-14T07:36:21;10.65;;;3.70;;
70420;SDS011;57848;51.938;15.520;2023-03-14T07:38:47;9.37;;;3.40;;
70420;SDS011;57848;51.938;15.520;2023-03-14T07:41:28;8.60;;;3.53;;
70420;SDS011;57848;51.938;15.520;2023-03-14T07:44:12;9.23;;;3.78;;
70420;SDS011;57848;51.938;15.520;2023-03-14T07:46:37;9.50;;;3.10;;
70420;SDS011;57848;51.938;15.520;2023-03-14T07:49:03;8.70;;;3.30;;
70420;SDS011;57848;51.938;15.520;2023-03-14T07:51:28;6.43;;;2.47;;
70420;SDS011;57848;51.938;15.520;2023-03-14T07:53:54;6.87;;;2.90;;
70420;SDS011;57848;51.938;15.520;2023-03-14T07:56:19;7.30;;;2.80;;
70420;SDS011;57848;51.938;15.520;2023-03-14T07:58:44;8.40;;;3.07;;
70420;SDS011;57848;51.938;15.520;2023-03-14T08:01:10;9.10;;;3.73;;
70420;SDS011;57848;51.938;15.520;2023-03-14T08:03:35;11.18;;;3.10;;
70420;SDS011;57848;51.938;15.520;2023-03-14T08:06:01;7.70;;;2.93;;
70420;SDS011;57848;51.938;15.520;2023-03-14T08:08:26;7.30;;;2.90;;
70420;SDS011;57848;51.938;15.520;2023-03-14T08:10:51;8.23;;;2.90;;
70420;SDS011;57848;51.938;15.520;2023-03-14T08:13:17;6.35;;;2.53;;
70420;SDS011;57848;51.938;15.520;2023-03-14T08:15:42;8.20;;;3.50;;
70420;SDS011;57848;51.938;15.520;2023-03-14T08:18:12;9.55;;;3.20;;
70420;SDS011;57848;51.938;15.520;2023-03-14T08:20:37;8.00;;;3.30;;
70420;SDS011;57848;51.938;15.520;2023-03-14T08:23:03;8.77;;;2.80;;
70420;SDS011;57848;51.938;15.520;2023-03-14T08:25:31;7.60;;;2.30;;
70420;SDS011;57848;51.938;15.520;2023-03-14T08:28:08;8.00;;;2.85;;
70420;SDS011;57848;51.938;15.520;2023-03-14T08:30:33;7.47;;;2.47;;
70420;SDS011;57848;51.938;15.520;2023-03-14T08:32:59;6.15;;;2.00;;
70420;SDS011;57848;51.938;15.520;2023-03-14T08:35:27;7.13;;;2.17;;
70420;SDS011;57848;51.938;15.520;2023-03-14T08:37:53;7.17;;;2.03;;
70420;SDS011;57848;51.938;15.520;2023-03-14T08:40:18;7.40;;;2.57;;
70420;SDS011;57848;51.938;15.520;2023-03-14T08:42:44;6.43;;;1.65;;
70420;SDS011;57848;51.938;15.520;2023-03-14T08:45:11;11.73;;;1.67;;
70420;SDS011;57848;51.938;15.520;2023-03-14T08:47:38;7.35;;;1.95;;
70420;SDS011;57848;51.938;15.520;2023-03-14T08:50:04;6.30;;;1.40;;
70420;SDS011;57848;51.938;15.520;2023-03-14T08:52:30;6.43;;;1.90;;
70420;SDS011;57848;51.938;15.520;2023-03-14T08:54:56;6.15;;;1.63;;
70420;SDS011;57848;51.938;15.520;2023-03-14T08:57:22;5.67;;;0.93;;
70420;SDS011;57848;51.938;15.520;2023-03-14T08:59:52;7.05;;;1.38;;
70420;SDS011;57848;51.938;15.520;2023-03-14T09:02:21;7.72;;;1.55;;
70420;SDS011;57848;51.938;15.520;2023-03-14T09:04:47;6.10;;;1.73;;
70420;SDS011;57848;51.938;15.520;2023-03-14T09:07:13;7.50;;;1.65;;
70420;SDS011;57848;51.938;15.520;2023-03-14T09:09:38;10.10;;;2.70;;
70420;SDS011;57848;51.938;15.520;2023-03-14T09:12:04;5.83;;;1.47;;
70420;SDS011;57848;51.938;15.520;2023-03-14T09:14:30;8.05;;;1.73;;
70420;SDS011;57848;51.938;15.520;2023-03-14T09:16:56;5.47;;;1.30;;
70420;SDS011;57848;51.938;15.520;2023-03-14T09:19:21;8.00;;;1.20;;
70420;SDS011;57848;51.938;15.520;2023-03-14T09:21:46;4.20;;;1.10;;
70420;SDS011;57848;51.938;15.520;2023-03-14T09:24:12;5.33;;;1.20;;
70420;SDS011;57848;51.938;15.520;2023-03-14T09:26:37;5.85;;;1.05;;
70420;SDS011;57848;51.938;15.520;2023-03-14T09:29:03;6.17;;;1.10;;
70420;SDS011;57848;51.938;15.520;2023-03-14T09:31:28;5.70;;;1.47;;
70420;SDS011;57848;51.938;15.520;2023-03-14T09:33:54;5.13;;;0.95;;
70420;SDS011;57848;51.938;15.520;2023-03-14T09:36:20;6.97;;;1.50;;
70420;SDS011;57848;51.938;15.520;2023-03-14T09:38:45;6.27;;;1.30;;
70420;SDS011;57848;51.938;15.520;2023-03-14T09:41:28;7.80;;;1.30;;
70420;SDS011;57848;51.938;15.520;2023-03-14T09:44:30;6.20;;;1.25;;
70420;SDS011;57848;51.938;15.520;2023-03-14T09:46:52;7.25;;;1.35;;
70420;SDS011;57848;51.938;15.520;2023-03-14T09:49:20;6.03;;;1.67;;
70420;SDS011;57848;51.938;15.520;2023-03-14T09:51:51;5.78;;;1.00;;
70420;SDS011;57848;51.938;15.520;2023-03-14T09:55:05;7.93;;;1.50;;
70420;SDS011;57848;51.938;15.520;2023-03-14T09:57:16;5.63;;;1.42;;
70420;SDS011;57848;51.938;15.520;2023-03-14T09:59:47;5.70;;;1.40;;
70420;SDS011;57848;51.938;15.520;2023-03-14T10:02:21;5.00;;;0.83;;
70420;SDS011;57848;51.938;15.520;2023-03-14T10:04:49;5.25;;;0.90;;
70420;SDS011;57848;51.938;15.520;2023-03-14T10:07:20;5.10;;;1.23;;
70420;SDS011;57848;51.938;15.520;2023-03-14T10:09:56;3.30;;;0.93;;
70420;SDS011;57848;51.938;15.520;2023-03-14T10:12:35;6.65;;;1.27;;
70420;SDS011;57848;51.938;15.520;2023-03-14T10:15:04;5.07;;;1.03;;
70420;SDS011;57848;51.938;15.520;2023-03-14T10:17:40;5.15;;;1.25;;
70420;SDS011;57848;51.938;15.520;2023-03-14T10:20:14;5.68;;;1.00;;
70420;SDS011;57848;51.938;15.520;2023-03-14T10:22:54;6.05;;;1.17;;
70420;SDS011;57848;51.938;15.520;2023-03-14T10:25:25;5.03;;;1.30;;
70420;SDS011;57848;51.938;15.520;2023-03-14T10:27:53;5.30;;;1.20;;
70420;SDS011;57848;51.938;15.520;2023-03-14T10:32:56;5.50;;;0.90;;
70420;SDS011;57848;51.938;15.520;2023-03-14T10:35:22;4.53;;;1.13;;
70420;SDS011;57848;51.938;15.520;2023-03-14T10:38:01;5.50;;;1.20;;
70420;SDS011;57848;51.938;15.520;2023-03-14T10:40:32;5.28;;;0.98;;
70420;SDS011;57848;51.938;15.520;2023-03-14T10:43:03;5.93;;;1.52;;
70420;SDS011;57848;51.938;15.520;2023-03-14T10:45:40;6.78;;;1.25;;
70420;SDS011;57848;51.938;15.520;2023-03-14T10:50:49;4.37;;;0.93;;
70420;SDS011;57848;51.938;15.520;2023-03-14T10:53:18;4.03;;;1.00;;
70420;SDS011;57848;51.938;15.520;2023-03-14T10:55:44;3.40;;;0.75;;
70420;SDS011;57848;51.938;15.520;2023-03-14T10:58:20;4.55;;;1.13;;
70420;SDS011;57848;51.938;15.520;2023-03-14T11:00:48;5.20;;;1.10;;
70420;SDS011;57848;51.938;15.520;2023-03-14T11:03:17;4.15;;;0.82;;
70420;SDS011;57848;51.938;15.520;2023-03-14T11:05:50;4.88;;;0.93;;
70420;SDS011;57848;51.938;15.520;2023-03-14T11:10:47;8.33;;;0.93;;
70420;SDS011;57848;51.938;15.520;2023-03-14T11:16:08;6.50;;;1.10;;
70420;SDS011;57848;51.938;15.520;2023-03-14T11:24:14;4.90;;;1.20;;
70420;SDS011;57848;51.938;15.520;2023-03-14T11:27:25;5.50;;;1.15;;
70420;SDS011;57848;51.938;15.520;2023-03-14T11:35:27;6.82;;;1.38;;
70420;SDS011;57848;51.938;15.520;2023-03-14T11:40:43;5.30;;;1.30;;
70420;SDS011;57848;51.938;15.520;2023-03-14T11:43:13;4.27;;;1.10;;
70420;SDS011;57848;51.938;15.520;2023-03-14T11:45:43;6.22;;;1.15;;
70420;SDS011;57848;51.938;15.520;2023-03-14T11:48:15;6.88;;;1.48;;
70420;SDS011;57848;51.938;15.520;2023-03-14T11:50:44;4.43;;;1.08;;
70420;SDS011;57848;51.938;15.520;2023-03-14T11:56:18;4.27;;;1.17;;
70420;SDS011;57848;51.938;15.520;2023-03-14T11:58:57;6.00;;;1.23;;
70420;SDS011;57848;51.938;15.520;2023-03-14T12:01:48;9.50;;;1.10;;
70420;SDS011;57848;51.938;15.520;2023-03-14T12:04:29;8.05;;;1.48;;
70420;SDS011;57848;51.938;15.520;2023-03-14T12:07:17;6.22;;;1.70;;
70420;SDS011;57848;51.938;15.520;2023-03-14T12:09:45;5.30;;;1.40;;
70420;SDS011;57848;51.938;15.520;2023-03-14T12:12:14;7.53;;;2.08;;
70420;SDS011;57848;51.938;15.520;2023-03-14T12:14:45;5.03;;;1.38;;
70420;SDS011;57848;51.938;15.520;2023-03-14T12:20:05;6.22;;;1.60;;
70420;SDS011;57848;51.938;15.520;2023-03-14T12:22:55;3.97;;;0.90;;
70420;SDS011;57848;51.938;15.520;2023-03-14T12:25:27;6.88;;;1.30;;
70420;SDS011;57848;51.938;15.520;2023-03-14T12:38:04;6.78;;;2.13;;
70420;SDS011;57848;51.938;15.520;2023-03-14T12:40:40;6.23;;;1.10;;
70420;SDS011;57848;51.938;15.520;2023-03-14T12:43:25;4.82;;;1.00;;
70420;SDS011;57848;51.938;15.520;2023-03-14T12:48:39;8.57;;;1.77;;
70420;SDS011;57848;51.938;15.520;2023-03-14T12:51:11;6.37;;;1.83;;
70420;SDS011;57848;51.938;15.520;2023-03-14T12:56:23;4.30;;;1.25;;
70420;SDS011;57848;51.938;15.520;2023-03-14T12:59:17;4.65;;;1.20;;
70420;SDS011;57848;51.938;15.520;2023-03-14T13:01:59;6.13;;;1.10;;
70420;SDS011;57848;51.938;15.520;2023-03-14T13:04:32;5.32;;;0.90;;
70420;SDS011;57848;51.938;15.520;2023-03-14T13:07:01;5.00;;;1.30;;
70420;SDS011;57848;51.938;15.520;2023-03-14T13:12:03;5.47;;;1.58;;
70420;SDS011;57848;51.938;15.520;2023-03-14T13:14:35;5.88;;;1.58;;
70420;SDS011;57848;51.938;15.520;2023-03-14T13:17:01;5.68;;;1.38;;
70420;SDS011;57848;51.938;15.520;2023-03-14T13:19:28;6.03;;;1.47;;
70420;SDS011;57848;51.938;15.520;2023-03-14T13:21:56;4.32;;;1.20;;
70420;SDS011;57848;51.938;15.520;2023-03-14T13:24:27;6.97;;;1.30;;
70420;SDS011;57848;51.938;15.520;2023-03-14T13:26:53;3.93;;;1.03;;
70420;SDS011;57848;51.938;15.520;2023-03-14T13:29:29;5.57;;;1.73;;
70420;SDS011;57848;51.938;15.520;2023-03-14T13:31:57;9.25;;;3.10;;
70420;SDS011;57848;51.938;15.520;2023-03-14T13:34:26;8.35;;;2.30;;
70420;SDS011;57848;51.938;15.520;2023-03-14T13:36:53;6.78;;;2.17;;
70420;SDS011;57848;51.938;15.520;2023-03-14T13:39:20;5.47;;;1.87;;
70420;SDS011;57848;51.938;15.520;2023-03-14T13:41:49;5.55;;;1.38;;
70420;SDS011;57848;51.938;15.520;2023-03-14T13:44:24;5.88;;;1.67;;
70420;SDS011;57848;51.938;15.520;2023-03-14T13:46:56;8.77;;;3.07;;
70420;SDS011;57848;51.938;15.520;2023-03-14T13:49:24;8.90;;;2.25;;
70420;SDS011;57848;51.938;15.520;2023-03-14T13:51:50;7.40;;;1.98;;
70420;SDS011;57848;51.938;15.520;2023-03-14T13:54:17;6.63;;;1.80;;
70420;SDS011;57848;51.938;15.520;2023-03-14T13:56:44;7.67;;;1.90;;
70420;SDS011;57848;51.938;15.520;2023-03-14T13:59:23;6.50;;;1.40;;
70420;SDS011;57848;51.938;15.520;2023-03-14T14:01:53;5.13;;;1.33;;
70420;SDS011;57848;51.938;15.520;2023-03-14T14:04:21;6.25;;;1.30;;
70420;SDS011;57848;51.938;15.520;2023-03-14T14:06:49;7.28;;;1.80;;
70420;SDS011;57848;51.938;15.520;2023-03-14T14:09:35;7.63;;;1.87;;
70420;SDS011;57848;51.938;15.520;2023-03-14T14:12:05;5.68;;;1.33;;
70420;SDS011;57848;51.938;15.520;2023-03-14T14:14:57;6.50;;;1.83;;
70420;SDS011;57848;51.938;15.520;2023-03-14T14:17:45;7.25;;;1.88;;
70420;SDS011;57848;51.938;15.520;2023-03-14T14:22:42;5.50;;;1.57;;
70420;SDS011;57848;51.938;15.520;2023-03-14T14:25:12;6.13;;;1.60;;
70420;SDS011;57848;51.938;15.520;2023-03-14T14:27:39;5.68;;;1.27;;
70420;SDS011;57848;51.938;15.520;2023-03-14T14:32:41;5.38;;;1.85;;
70420;SDS011;57848;51.938;15.520;2023-03-14T14:35:07;7.10;;;1.40;;
70420;SDS011;57848;51.938;15.520;2023-03-14T14:37:42;6.75;;;1.40;;
70420;SDS011;57848;51.938;15.520;2023-03-14T14:40:16;6.03;;;1.30;;
70420;SDS011;57848;51.938;15.520;2023-03-14T14:42:43;4.88;;;1.40;;
70420;SDS011;57848;51.938;15.520;2023-03-14T14:45:13;5.80;;;1.42;;
70420;SDS011;57848;51.938;15.520;2023-03-14T14:48:04;6.70;;;1.60;;
70420;SDS011;57848;51.938;15.520;2023-03-14T14:50:36;4.85;;;1.60;;
70420;SDS011;57848;51.938;15.520;2023-03-14T14:53:17;4.93;;;1.63;;
70420;SDS011;57848;51.938;15.520;2023-03-14T14:55:52;5.47;;;1.50;;
70420;SDS011;57848;51.938;15.520;2023-03-14T14:58:27;5.40;;;1.33;;
70420;SDS011;57848;51.938;15.520;2023-03-14T15:01:07;6.10;;;1.70;;
70420;SDS011;57848;51.938;15.520;2023-03-14T15:03:43;7.10;;;1.83;;
70420;SDS011;57848;51.938;15.520;2023-03-14T15:06:13;5.33;;;1.40;;
70420;SDS011;57848;51.938;15.520;2023-03-14T15:08:40;7.25;;;1.65;;
70420;SDS011;57848;51.938;15.520;2023-03-14T15:11:18;5.82;;;1.52;;
70420;SDS011;57848;51.938;15.520;2023-03-14T15:13:45;4.80;;;1.40;;
70420;SDS011;57848;51.938;15.520;2023-03-14T15:16:11;4.97;;;1.40;;
70420;SDS011;57848;51.938;15.520;2023-03-14T15:18:39;4.90;;;1.17;;
70420;SDS011;57848;51.938;15.520;2023-03-14T15:21:04;5.63;;;1.40;;
70420;SDS011;57848;51.938;15.520;2023-03-14T15:23:30;6.43;;;1.70;;
70420;SDS011;57848;51.938;15.520;2023-03-14T15:25:55;4.17;;;1.20;;
70420;SDS011;57848;51.938;15.520;2023-03-14T15:28:22;4.40;;;1.17;;
70420;SDS011;57848;51.938;15.520;2023-03-14T15:30:50;5.22;;;1.38;;
70420;SDS011;57848;51.938;15.520;2023-03-14T15:33:17;7.53;;;2.22;;
70420;SDS011;57848;51.938;15.520;2023-03-14T15:35:43;5.47;;;1.48;;
70420;SDS011;57848;51.938;15.520;2023-03-14T15:38:13;4.63;;;1.37;;
70420;SDS011;57848;51.938;15.520;2023-03-14T15:40:40;5.13;;;1.65;;
70420;SDS011;57848;51.938;15.520;2023-03-14T15:43:06;5.88;;;1.27;;
70420;SDS011;57848;51.938;15.520;2023-03-14T15:45:32;7.75;;;2.55;;
70420;SDS011;57848;51.938;15.520;2023-03-14T15:47:58;6.77;;;1.93;;
70420;SDS011;57848;51.938;15.520;2023-03-14T15:50:23;4.53;;;1.20;;
70420;SDS011;57848;51.938;15.520;2023-03-14T15:52:50;7.20;;;1.70;;
70420;SDS011;57848;51.938;15.520;2023-03-14T15:55:16;8.70;;;1.27;;